createdAt,value
2023-04-18T00:01:24.974Z,95225.53
2023-04-18T00:03:52.345Z,95221.09
2023-04-18T00:06:21.139Z,95224.97
2023-04-18T00:08:48.173Z,95228.09
2023-04-18T00:11:15.030Z,95230.31
2023-04-18T00:13:41.857Z,95226.50
2023-04-18T00:16:08.803Z,95217.84
2023-04-18T00:18:37.239Z,95214.50
2023-04-18T00:21:04.491Z,95213.66
2023-04-18T00:23:31.425Z,95210.97
2023-04-18T00:25:58.183Z,95216.56
2023-04-18T00:28:25.014Z,95215.88
2023-04-18T00:30:51.878Z,95216.66
2023-04-18T00:33:18.833Z,95210.06
2023-04-18T00:35:45.453Z,95214.00
2023-04-18T00:38:13.606Z,95207.09
2023-04-18T00:40:41.099Z,95214.94
2023-04-18T00:43:08.680Z,95215.88
2023-04-18T00:45:35.733Z,95209.94
2023-04-18T00:48:02.939Z,95211.38
2023-04-18T00:50:29.625Z,95217.53
2023-04-18T00:52:56.916Z,95217.66
2023-04-18T00:55:25.029Z,95220.34
2023-04-18T00:57:52.186Z,95216.72
2023-04-18T01:00:19.349Z,95214.41
2023-04-18T01:02:47.917Z,95215.78
2023-04-18T01:05:14.971Z,95216.16
2023-04-18T01:07:41.891Z,95217.31
2023-04-18T01:10:10.434Z,95217.69
2023-04-18T01:12:37.830Z,95210.81
2023-04-18T01:15:05.696Z,95212.56
2023-04-18T01:17:35.471Z,95202.53
2023-04-18T01:20:06.394Z,95198.69
2023-04-18T01:22:33.144Z,95194.97
2023-04-18T01:25:00.324Z,95191.38
2023-04-18T01:27:27.096Z,95194.03
2023-04-18T01:29:53.997Z,95191.38
2023-04-18T01:32:21.085Z,95187.41
2023-04-18T01:34:47.824Z,95185.22
2023-04-18T01:37:14.758Z,95190.47
2023-04-18T01:39:41.327Z,95182.78
2023-04-18T01:42:08.305Z,95190.34
2023-04-18T01:44:34.901Z,95188.13
2023-04-18T01:47:01.794Z,95182.56
2023-04-18T01:49:28.485Z,95193.38
2023-04-18T01:51:55.278Z,95192.44
2023-04-18T01:54:21.986Z,95192.44
2023-04-18T01:56:48.571Z,95191.50
2023-04-18T01:59:15.265Z,95193.63
2023-04-18T02:01:42.785Z,95196.88
2023-04-18T02:04:09.404Z,95190.81
2023-04-18T02:06:36.225Z,95182.19
2023-04-18T02:09:02.790Z,95187.44
2023-04-18T02:11:29.957Z,95187.44
2023-04-18T02:13:56.583Z,95188.94
2023-04-18T02:16:25.272Z,95184.19
2023-04-18T02:18:52.464Z,95185.81
2023-04-18T02:21:19.262Z,95192.31
2023-04-18T02:23:46.036Z,95189.66
2023-04-18T02:26:12.933Z,95185.38
2023-04-18T02:28:39.797Z,95182.56
2023-04-18T02:31:07.318Z,95183.38
2023-04-18T02:33:34.415Z,95182.81
2023-04-18T02:36:01.811Z,95186.84
2023-04-18T02:38:28.378Z,95186.84
2023-04-18T02:40:55.055Z,95190.38
2023-04-18T02:43:21.717Z,95187.09
2023-04-18T02:45:48.627Z,95179.41
2023-04-18T02:48:15.678Z,95181.50
2023-04-18T02:50:43.497Z,95187.44
2023-04-18T02:53:10.088Z,95185.59
2023-04-18T02:55:51.726Z,95188.16
2023-04-18T02:58:20.109Z,95185.72
2023-04-18T03:01:17.743Z,95183.16
2023-04-18T03:03:55.982Z,95183.84
2023-04-18T03:06:31.964Z,95189.09
2023-04-18T03:09:01.007Z,95184.88
2023-04-18T03:11:28.265Z,95183.03
2023-04-18T03:13:56.038Z,95178.72
2023-04-18T03:16:25.792Z,95181.41
2023-04-18T03:18:53.093Z,95178.16
2023-04-18T03:21:21.710Z,95180.72
2023-04-18T03:23:48.557Z,95178.28
2023-04-18T03:26:15.769Z,95176.63
2023-04-18T03:28:44.680Z,95176.63
2023-04-18T03:31:11.523Z,95182.84
2023-04-18T03:33:42.528Z,95178.38
2023-04-18T03:36:11.851Z,95174.44
2023-04-18T03:38:40.661Z,95172.81
2023-04-18T03:41:08.378Z,95175.50
2023-04-18T03:43:36.914Z,95174.53
2023-04-18T03:46:04.316Z,95176.41
2023-04-18T03:48:35.673Z,95174.66
2023-04-18T03:51:06.228Z,95167.34
2023-04-18T03:53:33.111Z,95176.97
2023-04-18T03:56:00.310Z,95177.94
2023-04-18T03:58:41.162Z,95177.81
2023-04-18T04:01:08.262Z,95174.78
2023-04-18T04:03:35.079Z,95170.81
2023-04-18T04:06:01.940Z,95178.75
2023-04-18T04:08:28.646Z,95170.25
2023-04-18T04:10:55.631Z,95174.91
2023-04-18T04:13:22.784Z,95184.09
2023-04-18T04:15:49.924Z,95183.38
2023-04-18T04:18:16.471Z,95183.28
2023-04-18T04:20:46.027Z,95187.59
2023-04-18T04:23:19.149Z,95182.22
2023-04-18T04:25:47.314Z,95187.81
2023-04-18T04:28:31.813Z,95185.75
2023-04-18T04:31:03.467Z,95183.63
2023-04-18T04:33:33.225Z,95182.47
2023-04-18T04:36:02.939Z,95181.91
2023-04-18T04:38:33.472Z,95180.38
2023-04-18T04:41:00.138Z,95182.81
2023-04-18T04:43:28.742Z,95182.00
2023-04-18T04:45:57.815Z,95180.25
2023-04-18T04:48:25.009Z,95181.91
2023-04-18T04:50:57.954Z,95186.19
2023-04-18T04:53:26.473Z,95182.69
2023-04-18T04:55:53.658Z,95184.47
2023-04-18T04:58:21.695Z,95190.50
2023-04-18T05:01:09.136Z,95193.53
2023-04-18T05:03:37.042Z,95191.78
2023-04-18T05:06:04.657Z,95193.75
2023-04-18T05:08:31.513Z,95199.59
2023-04-18T05:10:58.081Z,95201.22
2023-04-18T05:13:24.837Z,95197.59
2023-04-18T05:15:52.688Z,95198.31
2023-04-18T05:18:19.387Z,95202.38
2023-04-18T05:20:46.366Z,95199.72
2023-04-18T05:23:13.274Z,95198.19
2023-04-18T05:25:39.831Z,95208.56
2023-04-18T05:28:08.543Z,95205.28
2023-04-18T05:30:35.117Z,95205.16
2023-04-18T05:33:01.940Z,95209.25
2023-04-18T05:35:28.753Z,95214.81
2023-04-18T05:37:55.615Z,95212.63
2023-04-18T05:40:22.774Z,95211.81
2023-04-18T05:42:49.391Z,95206.69
2023-04-18T05:45:16.680Z,95209.59
2023-04-18T05:47:43.234Z,95207.84
2023-04-18T05:50:10.247Z,95214.38
2023-04-18T05:52:38.997Z,95215.66
2023-04-18T05:55:06.727Z,95220.78
2023-04-18T05:57:33.418Z,95223.69
2023-04-18T06:00:00.300Z,95228.91
2023-04-18T06:02:27.081Z,95217.03
2023-04-18T06:04:53.820Z,95220.53
2023-04-18T06:07:21.422Z,95224.63
2023-04-18T06:09:49.740Z,95217.63
2023-04-18T06:12:16.603Z,95230.09
2023-04-18T06:14:43.254Z,95227.16
2023-04-18T06:17:12.484Z,95224.50
2023-04-18T06:19:39.642Z,95229.91
2023-04-18T06:22:06.395Z,95230.97
2023-04-18T06:24:32.910Z,95231.41
2023-04-18T06:26:59.786Z,95229.41
2023-04-18T06:29:30.213Z,95240.09
2023-04-18T06:31:57.977Z,95239.28
2023-04-18T06:34:24.950Z,95244.94
2023-04-18T06:36:52.485Z,95243.09
2023-04-18T06:39:19.703Z,95245.56
2023-04-18T06:41:47.677Z,95244.19
2023-04-18T06:44:24.334Z,95243.88
2023-04-18T06:46:50.948Z,95237.75
2023-04-18T06:49:18.305Z,95242.75
2023-04-18T06:51:45.222Z,95235.00
2023-04-18T06:54:11.951Z,95239.66
2023-04-18T06:56:38.911Z,95244.91
2023-04-18T06:59:05.932Z,95248.09
2023-04-18T07:01:35.504Z,95247.13
2023-04-18T07:04:02.179Z,95247.63
2023-04-18T07:06:28.797Z,95251.00
2023-04-18T07:09:00.199Z,95253.31
2023-04-18T07:11:28.040Z,95250.38
2023-04-18T07:13:54.685Z,95251.34
2023-04-18T07:16:21.701Z,95248.28
2023-04-18T07:18:48.740Z,95247.31
2023-04-18T07:21:15.639Z,95248.53
2023-04-18T07:23:42.250Z,95257.38
2023-04-18T07:26:11.451Z,95254.16
2023-04-18T07:28:37.982Z,95248.09
2023-04-18T07:31:04.892Z,95254.41
2023-04-18T07:33:33.625Z,95248.84
2023-04-18T07:36:01.534Z,95258.59
2023-04-18T07:38:28.663Z,95242.56
2023-04-18T07:40:59.284Z,95255.41
2023-04-18T07:43:27.266Z,95249.47
2023-04-18T07:45:54.277Z,95249.94
2023-04-18T07:48:25.323Z,95252.22
2023-04-18T07:50:52.249Z,95248.44
2023-04-18T07:53:19.170Z,95251.94
2023-04-18T07:55:46.503Z,95246.13
2023-04-18T07:58:13.713Z,95253.44
2023-04-18T08:00:42.582Z,95252.63
2023-04-18T08:03:13.404Z,95257.53
2023-04-18T08:05:42.329Z,95258.88
2023-04-18T08:08:11.528Z,95261.84
2023-04-18T08:10:38.344Z,95262.63
2023-04-18T08:13:06.639Z,95269.53
2023-04-18T08:15:33.626Z,95261.13
2023-04-18T08:18:01.173Z,95267.25
2023-04-18T08:20:28.227Z,95274.84
2023-04-18T08:25:24.838Z,95261.56
2023-04-18T08:27:51.449Z,95257.75
2023-04-18T08:30:18.250Z,95268.69
2023-04-18T08:32:44.995Z,95260.38
2023-04-18T08:35:11.911Z,95261.28
2023-04-18T08:37:39.094Z,95262.44
2023-04-18T08:40:07.267Z,95263.50
2023-04-18T08:42:35.518Z,95262.94
2023-04-18T08:45:02.622Z,95265.69
2023-04-18T08:47:30.111Z,95267.91
2023-04-18T08:49:58.673Z,95267.50
2023-04-18T08:52:28.522Z,95268.63
2023-04-18T08:54:55.219Z,95278.56
2023-04-18T08:57:26.965Z,95272.50
2023-04-18T08:59:54.560Z,95281.06
2023-04-18T09:02:24.405Z,95275.06
2023-04-18T09:04:55.836Z,95283.75
2023-04-18T09:07:29.718Z,95282.66
2023-04-18T09:09:57.770Z,95281.72
2023-04-18T09:12:26.471Z,95284.00
2023-04-18T09:14:56.607Z,95285.38
2023-04-18T09:17:38.047Z,95287.78
2023-04-18T09:20:05.836Z,95288.69
2023-04-18T09:22:48.428Z,95292.22
2023-04-18T09:25:35.013Z,95290.81
2023-04-18T09:28:02.725Z,95285.03
2023-04-18T09:30:34.424Z,95291.13
2023-04-18T09:33:04.462Z,95293.84
2023-04-18T09:35:31.537Z,95295.06
2023-04-18T09:37:58.438Z,95296.19
2023-04-18T09:40:25.473Z,95302.00
2023-04-18T09:42:54.687Z,95299.25
2023-04-18T09:45:22.369Z,95300.50
2023-04-18T09:47:49.892Z,95297.94
2023-04-18T09:50:18.468Z,95286.63
2023-04-18T09:52:45.753Z,95289.84
2023-04-18T09:55:17.614Z,95295.38
2023-04-18T09:57:47.489Z,95292.69
2023-04-18T10:00:25.378Z,95298.28
2023-04-18T10:03:10.712Z,95295.34
2023-04-18T10:05:40.568Z,95293.75
2023-04-18T10:08:08.500Z,95299.84
2023-04-18T10:10:38.523Z,95296.53
2023-04-18T10:13:08.315Z,95294.09
2023-04-18T10:15:35.270Z,95298.22
2023-04-18T10:18:07.061Z,95299.97
2023-04-18T10:20:35.360Z,95298.28
2023-04-18T10:23:35.851Z,95295.72
2023-04-18T10:26:04.360Z,95290.38
2023-04-18T10:28:57.318Z,95296.84
2023-04-18T10:31:29.087Z,95286.19
2023-04-18T10:36:28.543Z,95289.28
2023-04-18T10:39:19.608Z,95295.28
2023-04-18T10:41:51.092Z,95295.88
2023-04-18T10:44:22.059Z,95293.94
2023-04-18T10:46:48.867Z,95295.88
2023-04-18T10:49:16.085Z,95289.56
2023-04-18T10:51:45.384Z,95288.75
2023-04-18T10:54:38.852Z,95293.63
2023-04-18T10:57:08.951Z,95289.94
2023-04-18T10:59:39.158Z,95286.13
2023-04-18T11:02:32.531Z,95282.28
2023-04-18T11:05:06.863Z,95285.81
2023-04-18T11:07:37.380Z,95284.47
2023-04-18T11:10:05.154Z,95278.31
2023-04-18T11:12:34.212Z,95277.50
2023-04-18T11:15:09.032Z,95279.16
2023-04-18T11:17:35.985Z,95282.25
2023-04-18T11:20:11.512Z,95277.50
2023-04-18T11:22:53.076Z,95275.72
2023-04-18T11:25:24.530Z,95279.88
2023-04-18T11:27:51.750Z,95284.78
2023-04-18T11:30:18.960Z,95287.06
2023-04-18T11:32:45.715Z,95283.66
2023-04-18T11:35:15.125Z,95286.59
2023-04-18T11:37:45.463Z,95285.63
2023-04-18T11:40:13.352Z,95279.31
2023-04-18T11:42:40.848Z,95285.09
2023-04-18T11:45:13.077Z,95283.63
2023-04-18T11:47:41.962Z,95286.91
2023-04-18T11:50:10.540Z,95286.88
2023-04-18T11:52:37.514Z,95288.34
2023-04-18T11:55:24.959Z,95293.50
2023-04-18T11:57:59.422Z,95293.00
2023-04-18T12:00:41.608Z,95290.91
2023-04-18T12:03:16.314Z,95296.94
2023-04-18T12:05:43.423Z,95293.66
2023-04-18T12:08:18.997Z,95299.34
2023-04-18T12:10:50.763Z,95293.72
2023-04-18T12:13:18.676Z,95290.09
2023-04-18T12:15:47.014Z,95288.47
2023-04-18T12:18:16.188Z,95295.00
2023-04-18T12:20:50.888Z,95293.50
2023-04-18T12:23:31.055Z,95294.56
2023-04-18T12:26:15.012Z,95297.78
2023-04-18T12:28:45.713Z,95298.16
2023-04-18T12:31:12.844Z,95298.16
2023-04-18T12:33:39.593Z,95294.38
2023-04-18T12:36:08.510Z,95288.06
2023-04-18T12:38:35.757Z,95293.22
2023-04-18T12:41:02.658Z,95287.56
2023-04-18T12:43:29.305Z,95288.56
2023-04-18T12:45:56.158Z,95288.44
2023-04-18T12:48:22.801Z,95286.59
2023-04-18T12:50:49.574Z,95281.53
2023-04-18T12:53:16.096Z,95287.66
2023-04-18T12:55:42.929Z,95284.91
2023-04-18T12:58:09.598Z,95279.31
2023-04-18T13:00:36.454Z,95294.63
2023-04-18T13:03:03.328Z,95287.19
2023-04-18T13:05:33.451Z,95286.78
2023-04-18T13:10:31.068Z,95286.66
2023-04-18T13:12:57.822Z,95295.94
2023-04-18T13:15:24.888Z,95287.38
2023-04-18T13:17:51.790Z,95289.97
2023-04-18T13:20:19.028Z,95293.72
2023-04-18T13:22:45.730Z,95288.78
2023-04-18T13:25:12.514Z,95288.41
2023-04-18T13:27:42.014Z,95283.91
2023-04-18T13:30:10.679Z,95283.25
2023-04-18T13:32:39.024Z,95280.66
2023-04-18T13:35:08.841Z,95281.44
2023-04-18T13:37:36.189Z,95288.81
2023-04-18T13:40:06.912Z,95283.75
2023-04-18T13:42:34.145Z,95286.28
2023-04-18T13:45:00.794Z,95282.81
2023-04-18T13:47:27.640Z,95277.19
2023-04-18T13:49:54.383Z,95280.41
2023-04-18T13:52:21.220Z,95282.59
2023-04-18T13:54:48.161Z,95287.59
2023-04-18T13:57:14.892Z,95280.00
2023-04-18T13:59:41.533Z,95281.53
2023-04-18T14:02:09.764Z,95280.09
2023-04-18T14:04:37.059Z,95289.84
2023-04-18T14:07:04.271Z,95287.84
2023-04-18T14:09:30.956Z,95283.63
2023-04-18T14:11:58.414Z,95295.44
2023-04-18T14:14:25.901Z,95290.50
2023-04-18T14:16:53.688Z,95288.63
2023-04-18T14:19:20.598Z,95303.00
2023-04-18T14:21:48.307Z,95298.22
2023-04-18T14:24:15.152Z,95292.47
2023-04-18T14:26:41.815Z,95297.88
2023-04-18T14:29:08.718Z,95297.16
2023-04-18T14:31:35.502Z,95299.91
2023-04-18T14:34:02.336Z,95306.53
2023-04-18T14:36:28.991Z,95297.53
2023-04-18T14:38:55.839Z,95299.50
2023-04-18T14:41:22.403Z,95296.44
2023-04-18T14:43:49.416Z,95293.94
2023-04-18T14:46:16.581Z,95295.72
2023-04-18T14:48:47.380Z,95294.97
2023-04-18T14:51:17.438Z,95299.97
2023-04-18T14:53:44.919Z,95302.88
2023-04-18T14:56:11.898Z,95304.19
2023-04-18T14:58:38.786Z,95303.59
2023-04-18T15:01:05.815Z,95310.63
2023-04-18T15:03:33.235Z,95309.13
2023-04-18T15:06:00.478Z,95302.38
2023-04-18T15:08:27.268Z,95303.03
2023-04-18T15:10:54.101Z,95300.34
2023-04-18T15:13:20.919Z,95294.09
2023-04-18T15:15:54.577Z,95287.72
2023-04-18T15:18:21.529Z,95289.06
2023-04-18T15:20:48.201Z,95286.84
2023-04-18T15:23:15.582Z,95289.50
2023-04-18T15:25:43.854Z,95285.63
2023-04-18T15:28:10.475Z,95288.50
2023-04-18T15:30:38.828Z,95291.63
2023-04-18T15:33:05.635Z,95286.53
2023-04-18T15:35:32.197Z,95293.72
2023-04-18T15:37:59.403Z,95288.06
2023-04-18T15:40:26.279Z,95303.22
2023-04-18T15:42:54.239Z,95310.03
2023-04-18T15:45:22.023Z,95306.00
2023-04-18T15:47:48.968Z,95309.66
2023-04-18T15:50:18.759Z,95309.06
2023-04-18T15:52:45.412Z,95314.25
2023-04-18T15:55:15.722Z,95322.88
2023-04-18T15:57:42.365Z,95318.31
2023-04-18T16:00:15.854Z,95324.19
2023-04-18T16:02:44.139Z,95321.16
2023-04-18T16:05:12.482Z,95323.66
2023-04-18T16:07:40.151Z,95326.38
2023-04-18T16:10:10.291Z,95331.25
2023-04-18T16:12:38.584Z,95335.81
2023-04-18T16:15:06.869Z,95334.31
2023-04-18T16:17:33.611Z,95336.63
2023-04-18T16:20:00.292Z,95327.84
2023-04-18T16:22:29.680Z,95326.22
2023-04-18T16:24:56.502Z,95330.09
2023-04-18T16:27:23.079Z,95331.81
2023-04-18T16:29:49.849Z,95335.84
2023-04-18T16:32:16.699Z,95334.50
2023-04-18T16:34:43.312Z,95338.19
2023-04-18T16:37:10.053Z,95334.19
2023-04-18T16:39:37.305Z,95332.03
2023-04-18T16:42:04.305Z,95333.78
2023-04-18T16:44:31.149Z,95329.22
2023-04-18T16:46:58.064Z,95339.25
2023-04-18T16:49:25.294Z,95341.06
2023-04-18T16:51:52.172Z,95341.09
2023-04-18T16:54:19.120Z,95345.88
2023-04-18T16:56:45.866Z,95346.19
2023-04-18T16:59:12.819Z,95346.31
2023-04-18T17:01:39.592Z,95341.84
2023-04-18T17:04:06.344Z,95352.47
2023-04-18T17:06:33.088Z,95349.56
2023-04-18T17:09:00.135Z,95348.19
2023-04-18T17:11:26.788Z,95352.66
2023-04-18T17:13:53.768Z,95355.09
2023-04-18T17:16:20.661Z,95354.81
2023-04-18T17:18:47.530Z,95351.47
2023-04-18T17:21:14.114Z,95359.19
2023-04-18T17:23:42.457Z,95360.28
2023-04-18T17:26:09.624Z,95357.84
2023-04-18T17:28:36.440Z,95360.28
2023-04-18T17:31:03.713Z,95359.34
2023-04-18T17:33:31.377Z,95360.41
2023-04-18T17:35:58.407Z,95369.91
2023-04-18T17:38:25.205Z,95364.19
2023-04-18T17:41:02.488Z,95363.53
2023-04-18T17:43:29.488Z,95367.16
2023-04-18T17:45:59.803Z,95364.56
2023-04-18T17:48:26.535Z,95375.16
2023-04-18T17:50:53.065Z,95372.88
2023-04-18T17:53:19.753Z,95374.19
2023-04-18T17:55:48.898Z,95383.00
2023-04-18T17:58:16.854Z,95377.56
2023-04-18T18:00:43.602Z,95380.00
2023-04-18T18:03:13.765Z,95383.53
2023-04-18T18:05:41.328Z,95374.44
2023-04-18T18:08:08.097Z,95380.78
2023-04-18T18:10:34.992Z,95382.00
2023-04-18T18:13:01.693Z,95383.78
2023-04-18T18:15:28.574Z,95385.91
2023-04-18T18:17:55.704Z,95387.66
2023-04-18T18:20:22.748Z,95396.44
2023-04-18T18:22:49.562Z,95395.09
2023-04-18T18:25:16.310Z,95406.44
2023-04-18T18:27:43.160Z,95399.00
2023-04-18T18:30:10.147Z,95399.53
2023-04-18T18:32:36.767Z,95407.78
2023-04-18T18:35:05.619Z,95406.81
2023-04-18T18:37:33.011Z,95410.84
2023-04-18T18:39:59.912Z,95415.59
2023-04-18T18:42:26.823Z,95414.19
2023-04-18T18:44:53.420Z,95419.59
2023-04-18T18:47:20.126Z,95422.59
2023-04-18T18:49:48.764Z,95415.38
2023-04-18T18:52:16.062Z,95418.22
2023-04-18T18:54:43.044Z,95418.56
2023-04-18T18:57:09.727Z,95425.50
2023-04-18T18:59:36.436Z,95422.09
2023-04-18T19:02:03.395Z,95419.41
2023-04-18T19:04:30.139Z,95418.28
2023-04-18T19:06:57.045Z,95422.59
2023-04-18T19:09:23.637Z,95421.66
2023-04-18T19:11:51.220Z,95425.44
2023-04-18T19:14:17.842Z,95423.53
2023-04-18T19:16:44.643Z,95429.19
2023-04-18T19:19:11.501Z,95433.16
2023-04-18T19:21:39.856Z,95435.72
2023-04-18T19:24:06.747Z,95427.56
2023-04-18T19:26:33.528Z,95431.78
2023-04-18T19:29:00.303Z,95431.22
2023-04-18T19:31:26.867Z,95427.69
2023-04-18T19:33:53.461Z,95437.59
2023-04-18T19:36:22.342Z,95436.91
2023-04-18T19:38:49.265Z,95434.91
2023-04-18T19:41:15.873Z,95433.94
2023-04-18T19:43:42.724Z,95435.13
2023-04-18T19:46:09.697Z,95433.88
2023-04-18T19:48:36.690Z,95436.22
2023-04-18T19:51:04.642Z,95431.50
2023-04-18T19:53:31.380Z,95438.66
2023-04-18T19:55:57.933Z,95440.69
2023-04-18T19:58:34.659Z,95432.97
2023-04-18T20:01:01.552Z,95437.72
2023-04-18T20:03:28.617Z,95435.13
2023-04-18T20:05:55.528Z,95436.78
2023-04-18T20:08:22.194Z,95430.31
2023-04-18T20:10:48.855Z,95433.81
2023-04-18T20:13:15.517Z,95433.94
2023-04-18T20:15:42.167Z,95436.53
2023-04-18T20:18:09.132Z,95434.56
2023-04-18T20:20:35.717Z,95435.13
2023-04-18T20:23:03.343Z,95435.53
2023-04-18T20:25:30.101Z,95439.72
2023-04-18T20:27:56.732Z,95437.97
2023-04-18T20:30:23.820Z,95441.59
2023-04-18T20:32:50.560Z,95442.69
2023-04-18T20:35:17.529Z,95442.69
2023-04-18T20:37:44.649Z,95441.19
2023-04-18T20:40:11.752Z,95440.22
2023-04-18T20:42:39.130Z,95444.44
2023-04-18T20:45:06.395Z,95441.19
2023-04-18T20:47:33.982Z,95434.97
2023-04-18T20:50:00.625Z,95442.56
2023-04-18T20:52:27.202Z,95447.38
2023-04-18T20:54:53.978Z,95443.88
2023-04-18T20:57:20.761Z,95438.72
2023-04-18T20:59:47.598Z,95431.72
2023-04-18T21:02:14.715Z,95434.97
2023-04-18T21:04:41.437Z,95432.06
2023-04-18T21:07:08.317Z,95432.44
2023-04-18T21:09:36.933Z,95439.50
2023-04-18T21:12:04.205Z,95433.25
2023-04-18T21:14:31.253Z,95439.34
2023-04-18T21:16:58.532Z,95433.41
2023-04-18T21:19:25.167Z,95436.66
2023-04-18T21:21:51.720Z,95430.00
2023-04-18T21:24:18.748Z,95437.84
2023-04-18T21:26:45.339Z,95448.94
2023-04-18T21:29:12.138Z,95436.72
2023-04-18T21:31:38.691Z,95447.00
2023-04-18T21:34:05.554Z,95447.69
2023-04-18T21:36:32.348Z,95447.00
2023-04-18T21:39:01.032Z,95440.59
2023-04-18T21:41:28.204Z,95447.50
2023-04-18T21:43:54.832Z,95442.34
2023-04-18T21:46:21.867Z,95435.00
2023-04-18T21:48:48.545Z,95437.06
2023-04-18T21:51:16.648Z,95439.66
2023-04-18T21:53:44.090Z,95436.66
2023-04-18T21:56:11.030Z,95428.38
2023-04-18T21:58:37.824Z,95431.88
2023-04-18T22:01:04.491Z,95435.47
2023-04-18T22:03:33.420Z,95431.44
2023-04-18T22:06:01.320Z,95434.91
2023-04-18T22:08:29.495Z,95433.66
2023-04-18T22:10:58.976Z,95429.97
2023-04-18T22:13:29.972Z,95435.44
2023-04-18T22:15:58.148Z,95424.94
2023-04-18T22:18:25.261Z,95432.53
2023-04-18T22:20:53.598Z,95429.84
2023-04-18T22:23:20.776Z,95422.00
2023-04-18T22:25:48.129Z,95421.91
2023-04-18T22:28:15.173Z,95422.00
2023-04-18T22:30:41.875Z,95426.56
2023-04-18T22:33:08.604Z,95427.53
2023-04-18T22:35:35.318Z,95420.59
2023-04-18T22:38:01.889Z,95425.75
2023-04-18T22:40:28.645Z,95420.38
2023-04-18T22:42:56.064Z,95432.03
2023-04-18T22:45:22.817Z,95424.69
2023-04-18T22:47:49.540Z,95432.88
2023-04-18T22:50:16.404Z,95426.81
2023-04-18T22:52:43.195Z,95425.09
2023-04-18T22:55:09.995Z,95430.88
2023-04-18T22:57:38.165Z,95428.69
2023-04-18T23:00:06.564Z,95428.69
2023-04-18T23:02:33.499Z,95430.56
2023-04-18T23:05:02.298Z,95434.88
2023-04-18T23:07:29.276Z,95439.31
2023-04-18T23:09:56.119Z,95431.19
2023-04-18T23:12:22.824Z,95433.63
2023-04-18T23:14:49.767Z,95433.50
2023-04-18T23:17:16.300Z,95433.50
2023-04-18T23:19:45.015Z,95433.50
2023-04-18T23:22:11.915Z,95432.44
2023-04-18T23:24:38.856Z,95427.66
2023-04-18T23:27:05.932Z,95427.78
2023-04-18T23:29:38.160Z,95425.00
2023-04-18T23:32:05.466Z,95424.19
2023-04-18T23:34:32.371Z,95418.09
2023-04-18T23:36:59.495Z,95419.16
2023-04-18T23:39:26.914Z,95421.97
2023-04-18T23:41:53.871Z,95418.47
2023-04-18T23:44:20.545Z,95418.91
2023-04-18T23:46:47.735Z,95415.91
2023-04-18T23:49:15.395Z,95415.44
2023-04-18T23:51:42.452Z,95411.72
2023-04-18T23:54:09.077Z,95405.06
2023-04-18T23:56:35.763Z,95415.34
2023-04-18T23:59:02.688Z,95408.16
